Time,TemperatureF,DewpointF,PressureIn,WindDirection,WindDirectionDegrees,WindSpeedMPH,WindSpeedGustMPH,Humidity,HourlyPrecipIn,Conditions,Clouds,dailyrainin,SoftwareType,DateUTC
2013-03-05 00:02:00,57.9,42.3,29.88,NW,315,10.0,17.0,56,0.00,,,0.00,meteohub,2013-03-05 06:02:00,
2013-03-05 00:07:00,56.5,41.9,29.88,NW,315,18.0,18.0,58,0.00,,,0.00,meteohub,2013-03-05 06:07:00,
2013-03-05 00:12:00,55.4,41.7,29.88,NE,45,8.0,18.0,60,0.00,,,0.00,meteohub,2013-03-05 06:12:00,
2013-03-05 00:17:00,55.0,41.4,29.88,North,0,11.0,25.0,60,0.00,,,0.00,meteohub,2013-03-05 06:17:00,
2013-03-05 00:22:00,54.7,41.5,29.88,NNW,338,13.0,25.0,61,0.00,,,0.00,meteohub,2013-03-05 06:22:00,
2013-03-05 00:27:00,54.5,41.4,29.88,NE,45,20.0,23.0,61,0.00,,,0.00,meteohub,2013-03-05 06:27:00,
2013-03-05 00:32:00,54.0,40.8,29.89,NW,315,17.0,20.0,61,0.00,,,0.00,meteohub,2013-03-05 06:32:00,
2013-03-05 00:37:00,53.4,40.6,29.91,NE,45,15.0,20.0,62,0.00,,,0.00,meteohub,2013-03-05 06:37:00,
2013-03-05 00:43:00,53.1,40.8,29.93,NW,315,13.0,20.0,63,0.00,,,0.00,meteohub,2013-03-05 06:43:00,
2013-03-05 00:48:00,52.9,40.6,29.94,North,0,7.0,17.0,63,0.00,,,0.00,meteohub,2013-03-05 06:48:00,
2013-03-05 00:53:00,52.7,40.5,29.98,NW,315,9.0,16.0,63,0.00,,,0.00,meteohub,2013-03-05 06:53:00,
2013-03-05 00:58:00,52.3,40.1,29.98,South,180,16.0,18.0,63,0.00,,,0.00,meteohub,2013-03-05 06:58:00,
2013-03-05 01:03:00,51.8,39.6,29.97,SE,135,12.0,20.0,63,0.00,,,0.00,meteohub,2013-03-05 07:03:00,
2013-03-05 01:08:00,51.4,40.1,29.97,North,0,15.0,21.0,65,0.00,,,0.00,meteohub,2013-03-05 07:08:00,
2013-03-05 01:13:00,51.1,39.7,29.97,North,0,16.0,21.0,65,0.00,,,0.00,meteohub,2013-03-05 07:13:00,
2013-03-05 01:18:00,50.9,39.6,29.96,East,90,17.0,21.0,65,0.00,,,0.00,meteohub,2013-03-05 07:18:00,
2013-03-05 01:23:00,50.7,39.4,29.98,NW,315,21.0,21.0,65,0.00,,,0.00,meteohub,2013-03-05 07:23:00,
2013-03-05 01:28:00,50.5,39.2,30.00,NW,315,18.0,21.0,65,0.00,,,0.00,meteohub,2013-03-05 07:28:00,
2013-03-05 01:33:00,50.5,39.2,30.01,NW,315,9.0,21.0,65,0.00,,,0.00,meteohub,2013-03-05 07:33:00,
2013-03-05 01:38:00,50.5,38.8,30.02,NW,315,15.0,22.0,64,0.00,,,0.00,meteohub,2013-03-05 07:38:00,
2013-03-05 01:43:00,50.4,38.7,30.03,North,0,11.0,22.0,64,0.00,,,0.00,meteohub,2013-03-05 07:43:00,
2013-03-05 01:48:00,50.5,38.8,30.04,North,0,8.0,22.0,64,0.00,,,0.00,meteohub,2013-03-05 07:48:00,
2013-03-05 01:53:00,50.4,38.7,30.03,North,0,15.0,22.0,64,0.00,,,0.00,meteohub,2013-03-05 07:53:00,
2013-03-05 01:58:00,50.4,38.7,30.03,North,0,17.0,22.0,64,0.00,,,0.00,meteohub,2013-03-05 07:58:00,
2013-03-05 02:03:00,50.4,38.7,30.05,North,0,17.0,17.0,64,0.00,,,0.00,meteohub,2013-03-05 08:03:00,
2013-03-05 02:08:00,50.4,38.7,30.04,North,0,17.0,17.0,64,0.00,,,0.00,meteohub,2013-03-05 08:08:00,
2013-03-05 02:13:00,50.0,37.9,30.05,NW,315,14.0,17.0,63,0.00,,,0.00,meteohub,2013-03-05 08:13:00,
2013-03-05 02:18:00,49.8,38.1,30.04,SW,225,17.0,17.0,64,0.00,,,0.00,meteohub,2013-03-05 08:18:00,
2013-03-05 02:23:00,49.6,37.9,30.04,North,0,13.0,17.0,64,0.00,,,0.00,meteohub,2013-03-05 08:23:00,
2013-03-05 02:28:00,49.6,37.9,30.03,North,0,19.0,19.0,64,0.00,,,0.00,meteohub,2013-03-05 08:28:00,
2013-03-05 02:33:00,49.5,37.8,30.01,North,0,20.0,20.0,64,0.00,,,0.00,meteohub,2013-03-05 08:33:00,
2013-03-05 02:38:00,49.5,37.4,30.03,North,0,18.0,23.0,63,0.00,,,0.00,meteohub,2013-03-05 08:38:00,
2013-03-05 02:43:00,49.5,37.4,30.05,North,0,14.0,23.0,63,0.00,,,0.00,meteohub,2013-03-05 08:43:00,
2013-03-05 02:48:00,49.5,37.0,30.07,North,0,18.0,23.0,62,0.00,,,0.00,meteohub,2013-03-05 08:48:00,
2013-03-05 02:53:00,49.5,37.0,30.08,North,0,18.0,23.0,62,0.00,,,0.00,meteohub,2013-03-05 08:53:00,
2013-03-05 02:58:00,49.6,36.0,30.08,NW,315,14.0,23.0,59,0.00,,,0.00,meteohub,2013-03-05 08:58:00,
2013-03-05 03:03:00,49.8,34.7,30.11,NW,315,34.0,34.0,56,0.00,,,0.00,meteohub,2013-03-05 09:03:00,
2013-03-05 03:08:00,49.8,33.8,30.12,NE,45,16.0,34.0,54,0.00,,,0.00,meteohub,2013-03-05 09:08:00,
2013-03-05 03:13:00,50.0,33.1,30.14,North,0,10.0,34.0,52,0.00,,,0.00,meteohub,2013-03-05 09:13:00,
2013-03-05 03:18:00,50.0,33.1,30.14,North,0,17.0,34.0,52,0.00,,,0.00,meteohub,2013-03-05 09:18:00,
2013-03-05 03:23:00,50.0,33.1,30.13,North,0,17.0,24.0,52,0.00,,,0.00,meteohub,2013-03-05 09:23:00,
2013-03-05 03:28:00,50.0,33.1,30.12,East,90,16.0,17.0,52,0.00,,,0.00,meteohub,2013-03-05 09:28:00,
2013-03-05 03:33:00,49.8,33.4,30.14,North,0,17.0,17.0,53,0.00,,,0.00,meteohub,2013-03-05 09:33:00,
2013-03-05 03:38:00,50.0,33.1,30.14,North,0,21.0,21.0,52,0.00,,,0.00,meteohub,2013-03-05 09:38:00,
2013-03-05 03:43:00,50.0,33.1,30.16,North,0,8.0,25.0,52,0.00,,,0.00,meteohub,2013-03-05 09:43:00,
2013-03-05 03:48:00,50.0,33.1,30.15,NE,45,21.0,25.0,52,0.00,,,0.00,meteohub,2013-03-05 09:48:00,
2013-03-05 03:53:00,49.8,33.8,30.16,North,0,16.0,25.0,54,0.00,,,0.00,meteohub,2013-03-05 09:53:00,
2013-03-05 03:58:00,49.8,33.8,30.16,North,0,16.0,21.0,54,0.00,,,0.00,meteohub,2013-03-05 09:58:00,
2013-03-05 04:03:00,49.6,33.6,30.16,NE,45,11.0,21.0,54,0.00,,,0.00,meteohub,2013-03-05 10:03:00,
2013-03-05 04:08:00,49.5,34.0,30.17,West,270,17.0,21.0,55,0.00,,,0.00,meteohub,2013-03-05 10:08:00,
2013-03-05 04:13:00,49.3,33.8,30.17,North,0,19.0,19.0,55,0.00,,,0.00,meteohub,2013-03-05 10:13:00,
2013-03-05 04:18:00,49.3,33.8,30.17,NW,315,19.0,19.0,55,0.00,,,0.00,meteohub,2013-03-05 10:18:00,
2013-03-05 04:23:00,48.9,34.0,30.18,NW,315,17.0,19.0,56,0.00,,,0.00,meteohub,2013-03-05 10:23:00,
2013-03-05 04:28:00,48.9,34.0,30.19,NW,315,17.0,19.0,56,0.00,,,0.00,meteohub,2013-03-05 10:28:00,
2013-03-05 04:33:00,48.9,34.0,30.19,NW,315,17.0,19.0,56,0.00,,,0.00,meteohub,2013-03-05 10:33:00,
2013-03-05 04:39:00,48.4,34.3,30.19,North,0,15.0,19.0,58,0.00,,,0.00,meteohub,2013-03-05 10:39:00,
2013-03-05 04:44:00,48.2,34.2,30.19,NNW,338,13.0,17.0,58,0.00,,,0.00,meteohub,2013-03-05 10:44:00,
2013-03-05 04:49:00,48.0,34.3,30.19,North,0,14.0,17.0,59,0.00,,,0.00,meteohub,2013-03-05 10:49:00,
2013-03-05 04:54:00,47.8,34.2,30.19,NW,315,13.0,15.0,59,0.00,,,0.00,meteohub,2013-03-05 10:54:00,
2013-03-05 04:59:00,47.8,34.2,30.19,NW,315,13.0,15.0,59,0.00,,,0.00,meteohub,2013-03-05 10:59:00,
2013-03-05 05:04:00,47.8,34.2,30.19,NW,315,13.0,14.0,59,0.00,,,0.00,meteohub,2013-03-05 11:04:00,
2013-03-05 05:10:00,47.5,31.6,30.20,North,0,13.0,13.0,54,0.00,,,0.00,meteohub,2013-03-05 11:10:00,
2013-03-05 05:15:00,47.5,31.6,30.20,East,90,11.0,13.0,54,0.00,,,0.00,meteohub,2013-03-05 11:15:00,
2013-03-05 05:20:00,47.5,31.6,30.20,East,90,11.0,13.0,54,0.00,,,0.00,meteohub,2013-03-05 11:20:00,
2013-03-05 05:25:00,47.5,31.6,30.20,East,90,11.0,13.0,54,0.00,,,0.00,meteohub,2013-03-05 11:25:00,
2013-03-05 06:24:00,45.3,27.9,30.25,East,90,12.0,-999.0,50,-99.99,,,0.00,meteohub,2013-03-05 12:24:00,
2013-03-05 06:29:00,45.3,27.9,30.25,East,90,12.0,-999.0,50,0.00,,,0.00,meteohub,2013-03-05 12:29:00,
2013-03-05 06:34:00,45.3,27.9,30.25,East,90,12.0,12.0,50,0.00,,,0.00,meteohub,2013-03-05 12:34:00,
2013-03-05 07:04:00,44.2,28.6,30.28,North,0,7.0,-999.0,54,0.00,,,0.00,meteohub,2013-03-05 13:04:00,
2013-03-05 07:09:00,44.2,28.6,30.28,North,0,7.0,-999.0,54,0.00,,,0.00,meteohub,2013-03-05 13:09:00,
2013-03-05 07:14:00,44.2,28.6,30.28,North,0,7.0,7.0,54,0.00,,,0.00,meteohub,2013-03-05 13:14:00,
2013-03-05 07:25:00,44.6,29.5,30.29,North,0,8.0,8.0,55,0.00,,,0.00,meteohub,2013-03-05 13:25:00,
2013-03-05 07:30:00,44.8,29.1,30.29,North,0,8.0,8.0,54,0.00,,,0.00,meteohub,2013-03-05 13:30:00,
2013-03-05 07:35:00,44.8,29.1,30.29,NW,315,14.0,14.0,54,0.00,,,0.00,meteohub,2013-03-05 13:35:00,
2013-03-05 07:40:00,44.8,29.1,30.29,NW,315,14.0,14.0,54,0.00,,,0.00,meteohub,2013-03-05 13:40:00,
2013-03-05 07:45:00,45.0,29.3,30.30,West,270,15.0,15.0,54,0.00,,,0.00,meteohub,2013-03-05 13:45:00,
2013-03-05 07:50:00,45.0,29.3,30.29,West,270,15.0,15.0,54,0.00,,,0.00,meteohub,2013-03-05 13:50:00,
2013-03-05 07:55:00,45.7,29.1,30.30,NW,315,17.0,17.0,52,0.00,,,0.00,meteohub,2013-03-05 13:55:00,
2013-03-05 08:00:00,45.9,28.2,30.30,North,0,12.0,17.0,50,0.00,,,0.00,meteohub,2013-03-05 14:00:00,
2013-03-05 08:05:00,46.2,28.0,30.30,North,0,11.0,17.0,49,0.00,,,0.00,meteohub,2013-03-05 14:05:00,
2013-03-05 08:10:00,46.2,28.0,30.30,North,0,11.0,17.0,49,0.00,,,0.00,meteohub,2013-03-05 14:10:00,
2013-03-05 08:15:00,46.8,28.0,30.30,North,0,15.0,16.0,48,0.00,,,0.00,meteohub,2013-03-05 14:15:00,
2013-03-05 08:21:00,46.8,28.0,30.30,North,0,15.0,16.0,48,0.00,,,0.00,meteohub,2013-03-05 14:21:00,
2013-03-05 08:26:00,47.3,25.9,30.31,NW,315,14.0,16.0,43,0.00,,,0.00,meteohub,2013-03-05 14:26:00,
2013-03-05 08:31:00,47.3,25.9,30.31,NW,315,14.0,15.0,43,0.00,,,0.00,meteohub,2013-03-05 14:31:00,
2013-03-05 08:36:00,48.0,23.5,30.31,NW,315,19.0,19.0,38,0.00,,,0.00,meteohub,2013-03-05 14:36:00,
2013-03-05 08:41:00,48.0,22.3,30.32,NW,315,16.0,19.0,36,0.00,,,0.00,meteohub,2013-03-05 14:41:00,
2013-03-05 08:46:00,48.0,22.3,30.31,NW,315,16.0,19.0,36,0.00,,,0.00,meteohub,2013-03-05 14:46:00,
2013-03-05 08:51:00,48.4,19.9,30.32,NE,45,17.0,19.0,32,0.00,,,0.00,meteohub,2013-03-05 14:51:00,
2013-03-05 08:56:00,48.7,20.1,30.32,NW,315,14.0,18.0,32,0.00,,,0.00,meteohub,2013-03-05 14:56:00,
2013-03-05 09:01:00,48.7,20.1,30.33,NW,315,14.0,18.0,32,0.00,,,0.00,meteohub,2013-03-05 15:01:00,
2013-03-05 09:06:00,48.7,20.1,30.33,NW,315,14.0,18.0,32,0.00,,,0.00,meteohub,2013-03-05 15:06:00,
2013-03-05 09:11:00,49.1,18.1,30.33,NW,315,19.0,19.0,29,0.00,,,0.00,meteohub,2013-03-05 15:11:00,
2013-03-05 09:16:00,49.1,18.1,30.34,NW,315,19.0,19.0,29,0.00,,,0.00,meteohub,2013-03-05 15:16:00,
2013-03-05 09:21:00,50.0,15.6,30.34,NE,45,13.0,19.0,25,0.00,,,0.00,meteohub,2013-03-05 15:21:00,
2013-03-05 09:26:00,50.0,15.6,30.34,NE,45,13.0,19.0,25,0.00,,,0.00,meteohub,2013-03-05 15:26:00,
2013-03-05 09:31:00,49.5,14.2,30.35,NE,45,11.0,19.0,24,0.00,,,0.00,meteohub,2013-03-05 15:31:00,
2013-03-05 09:36:00,49.8,14.5,30.35,North,0,14.0,14.0,24,0.00,,,0.00,meteohub,2013-03-05 15:36:00,
2013-03-05 09:41:00,49.8,14.5,30.35,North,0,14.0,14.0,24,0.00,,,0.00,meteohub,2013-03-05 15:41:00,
2013-03-05 09:46:00,50.0,13.6,30.35,NE,45,13.0,14.0,23,0.00,,,0.00,meteohub,2013-03-05 15:46:00,
2013-03-05 09:51:00,50.0,13.6,30.35,North,0,11.0,14.0,23,0.00,,,0.00,meteohub,2013-03-05 15:51:00,
2013-03-05 09:56:00,50.5,15.1,30.36,North,0,8.0,14.0,24,0.00,,,0.00,meteohub,2013-03-05 15:56:00,
2013-03-05 10:01:00,50.5,15.1,30.37,North,0,8.0,13.0,24,0.00,,,0.00,meteohub,2013-03-05 16:01:00,
2013-03-05 10:06:00,50.7,16.2,30.37,North,0,11.0,11.0,25,0.00,,,0.00,meteohub,2013-03-05 16:06:00,
2013-03-05 10:11:00,50.7,16.2,30.37,North,0,11.0,11.0,25,0.00,,,0.00,meteohub,2013-03-05 16:11:00,
2013-03-05 10:16:00,51.1,16.5,30.37,North,0,17.0,17.0,25,0.00,,,0.00,meteohub,2013-03-05 16:16:00,
2013-03-05 10:21:00,51.1,16.5,30.38,North,0,17.0,17.0,25,0.00,,,0.00,meteohub,2013-03-05 16:21:00,
2013-03-05 10:26:00,50.9,16.3,30.38,North,0,17.0,17.0,25,0.00,,,0.00,meteohub,2013-03-05 16:26:00,
2013-03-05 10:31:00,50.5,15.1,30.39,North,0,16.0,17.0,24,0.00,,,0.00,meteohub,2013-03-05 16:31:00,
2013-03-05 10:36:00,50.7,14.2,30.39,NW,315,11.0,17.0,23,0.00,,,0.00,meteohub,2013-03-05 16:36:00,
2013-03-05 10:42:00,51.1,14.5,30.39,NW,315,10.0,17.0,23,0.00,,,0.00,meteohub,2013-03-05 16:42:00,
2013-03-05 10:47:00,51.6,15.1,30.39,SW,225,11.0,17.0,23,0.00,,,0.00,meteohub,2013-03-05 16:47:00,
2013-03-05 10:52:00,52.0,13.3,30.39,North,0,9.0,14.0,21,0.00,,,0.00,meteohub,2013-03-05 16:52:00,
2013-03-05 10:57:00,52.5,13.6,30.39,SW,225,9.0,12.0,21,0.00,,,0.00,meteohub,2013-03-05 16:57:00,
2013-03-05 11:02:00,52.7,13.8,30.39,NW,315,11.0,11.0,21,0.00,,,0.00,meteohub,2013-03-05 17:02:00,
2013-03-05 11:07:00,52.2,12.2,30.40,North,0,10.0,12.0,20,0.00,,,0.00,meteohub,2013-03-05 17:07:00,
2013-03-05 11:12:00,52.2,12.2,30.40,North,0,15.0,15.0,20,0.00,,,0.00,meteohub,2013-03-05 17:12:00,
2013-03-05 11:17:00,52.3,12.4,30.40,North,0,16.0,16.0,20,0.00,,,0.00,meteohub,2013-03-05 17:17:00,
2013-03-05 11:22:00,52.5,12.6,30.39,North,0,8.0,16.0,20,0.00,,,0.00,meteohub,2013-03-05 17:22:00,
2013-03-05 11:27:00,52.5,12.6,30.39,NW,315,23.0,23.0,20,0.00,,,0.00,meteohub,2013-03-05 17:27:00,
2013-03-05 11:32:00,52.7,12.7,30.40,North,0,16.0,23.0,20,0.00,,,0.00,meteohub,2013-03-05 17:32:00,
2013-03-05 11:37:00,53.4,13.3,30.40,NW,315,11.0,23.0,20,0.00,,,0.00,meteohub,2013-03-05 17:37:00,
2013-03-05 11:42:00,53.6,12.4,30.40,NNW,338,13.0,23.0,19,0.00,,,0.00,meteohub,2013-03-05 17:42:00,
2013-03-05 11:47:00,53.4,13.3,30.40,NW,315,11.0,16.0,20,0.00,,,0.00,meteohub,2013-03-05 17:47:00,
2013-03-05 11:52:00,53.2,12.0,30.39,North,0,11.0,14.0,19,0.00,,,0.00,meteohub,2013-03-05 17:52:00,
2013-03-05 11:57:00,53.2,12.0,30.40,North,0,11.0,14.0,19,0.00,,,0.00,meteohub,2013-03-05 17:57:00,
2013-03-05 12:02:00,53.6,11.1,30.39,North,0,15.0,15.0,18,0.00,,,0.00,meteohub,2013-03-05 18:02:00,
2013-03-05 12:07:00,53.6,11.1,30.39,North,0,15.0,15.0,18,0.00,,,0.00,meteohub,2013-03-05 18:07:00,
2013-03-05 12:12:00,53.8,11.3,30.40,North,0,15.0,15.0,18,0.00,,,0.00,meteohub,2013-03-05 18:12:00,
2013-03-05 12:17:00,53.8,11.3,30.40,North,0,15.0,15.0,18,0.00,,,0.00,meteohub,2013-03-05 18:17:00,
2013-03-05 12:22:00,54.0,11.5,30.40,WNW,293,14.0,15.0,18,0.00,,,0.00,meteohub,2013-03-05 18:22:00,
2013-03-05 12:27:00,54.0,11.5,30.40,NW,315,15.0,15.0,18,0.00,,,0.00,meteohub,2013-03-05 18:27:00,
2013-03-05 12:32:00,54.0,11.5,30.40,NW,315,15.0,15.0,18,0.00,,,0.00,meteohub,2013-03-05 18:32:00,
2013-03-05 12:37:00,54.1,11.5,30.40,NW,315,12.0,15.0,18,0.00,,,0.00,meteohub,2013-03-05 18:37:00,
2013-03-05 12:42:00,55.2,12.4,30.39,North,0,14.0,15.0,18,0.00,,,0.00,meteohub,2013-03-05 18:42:00,
2013-03-05 12:47:00,54.7,10.8,30.39,NE,45,14.0,15.0,17,0.00,,,0.00,meteohub,2013-03-05 18:47:00,
2013-03-05 12:52:00,55.0,10.9,30.39,North,0,11.0,18.0,17,0.00,,,0.00,meteohub,2013-03-05 18:52:00,
2013-03-05 12:57:00,55.4,14.9,30.39,NW,315,8.0,18.0,20,0.00,,,0.00,meteohub,2013-03-05 18:57:00,
2013-03-05 13:02:00,55.6,15.1,30.38,North,0,8.0,18.0,20,0.00,,,0.00,meteohub,2013-03-05 19:02:00,
2013-03-05 13:07:00,55.9,15.4,30.38,North,0,9.0,15.0,20,0.00,,,0.00,meteohub,2013-03-05 19:07:00,
2013-03-05 13:12:00,56.1,15.6,30.38,North,0,11.0,15.0,20,0.00,,,0.00,meteohub,2013-03-05 19:12:00,
2013-03-05 13:17:00,56.3,14.5,30.38,NW,315,10.0,14.0,19,0.00,,,0.00,meteohub,2013-03-05 19:17:00,
2013-03-05 13:22:00,55.8,14.2,30.38,NE,45,7.0,15.0,19,0.00,,,0.00,meteohub,2013-03-05 19:22:00,
2013-03-05 13:27:00,55.9,14.2,30.38,North,0,8.0,15.0,19,0.00,,,0.00,meteohub,2013-03-05 19:27:00,
2013-03-05 13:32:00,55.9,14.2,30.38,North,0,13.0,15.0,19,0.00,,,0.00,meteohub,2013-03-05 19:32:00,
2013-03-05 13:37:00,55.8,14.2,30.37,North,0,10.0,15.0,19,0.00,,,0.00,meteohub,2013-03-05 19:37:00,
2013-03-05 13:42:00,56.1,14.4,30.37,North,0,11.0,13.0,19,0.00,,,0.00,meteohub,2013-03-05 19:42:00,
2013-03-05 13:47:00,56.7,14.9,30.37,NW,315,11.0,13.0,19,0.00,,,0.00,meteohub,2013-03-05 19:47:00,
2013-03-05 13:52:00,56.5,14.7,30.37,West,270,11.0,13.0,19,0.00,,,0.00,meteohub,2013-03-05 19:52:00,
2013-03-05 13:57:00,56.5,14.7,30.37,SE,135,12.0,13.0,19,0.00,,,0.00,meteohub,2013-03-05 19:57:00,
2013-03-05 14:02:00,56.3,14.5,30.36,NW,315,8.0,21.0,19,0.00,,,0.00,meteohub,2013-03-05 20:02:00,
2013-03-05 14:07:00,56.3,14.5,30.36,NW,315,8.0,21.0,19,0.00,,,0.00,meteohub,2013-03-05 20:07:00,
2013-03-05 14:12:00,56.7,14.9,30.36,NW,315,14.0,17.0,19,0.00,,,0.00,meteohub,2013-03-05 20:12:00,
2013-03-05 14:17:00,55.9,14.2,30.36,North,0,7.0,19.0,19,0.00,,,0.00,meteohub,2013-03-05 20:17:00,
2013-03-05 14:22:00,57.0,15.1,30.36,North,0,8.0,19.0,19,0.00,,,0.00,meteohub,2013-03-05 20:22:00,
2013-03-05 14:27:00,57.4,14.2,30.35,NW,315,15.0,19.0,18,0.00,,,0.00,meteohub,2013-03-05 20:27:00,
2013-03-05 14:32:00,57.2,14.0,30.36,WNW,293,11.0,15.0,18,0.00,,,0.00,meteohub,2013-03-05 20:32:00,
2013-03-05 14:37:00,57.2,14.0,30.36,North,0,6.0,16.0,18,0.00,,,0.00,meteohub,2013-03-05 20:37:00,
2013-03-05 14:42:00,57.2,14.0,30.35,North,0,6.0,16.0,18,0.00,,,0.00,meteohub,2013-03-05 20:42:00,
2013-03-05 14:47:00,57.2,14.0,30.35,North,0,6.0,16.0,18,0.00,,,0.00,meteohub,2013-03-05 20:47:00,
2013-03-05 14:52:00,56.7,14.9,30.35,North,0,9.0,9.0,19,0.00,,,0.00,meteohub,2013-03-05 20:52:00,
2013-03-05 14:57:00,57.2,14.0,30.35,North,0,8.0,9.0,18,0.00,,,0.00,meteohub,2013-03-05 20:57:00,
2013-03-05 15:02:00,57.4,14.2,30.35,NW,315,7.0,9.0,18,0.00,,,0.00,meteohub,2013-03-05 21:02:00,
2013-03-05 15:07:00,57.6,14.4,30.34,SW,225,12.0,12.0,18,0.00,,,0.00,meteohub,2013-03-05 21:07:00,
2013-03-05 15:12:00,57.0,15.1,30.34,NE,45,11.0,12.0,19,0.00,,,0.00,meteohub,2013-03-05 21:12:00,
2013-03-05 15:17:00,57.0,15.1,30.34,North,0,10.0,12.0,19,0.00,,,0.00,meteohub,2013-03-05 21:17:00,
2013-03-05 15:22:00,57.2,14.0,30.35,North,0,8.0,12.0,18,0.00,,,0.00,meteohub,2013-03-05 21:22:00,
2013-03-05 15:27:00,57.0,15.1,30.34,NW,315,11.0,11.0,19,0.00,,,0.00,meteohub,2013-03-05 21:27:00,
2013-03-05 15:32:00,56.8,15.1,30.35,NW,315,8.0,15.0,19,0.00,,,0.00,meteohub,2013-03-05 21:32:00,
2013-03-05 15:37:00,57.0,15.1,30.35,NW,315,10.0,15.0,19,0.00,,,0.00,meteohub,2013-03-05 21:37:00,
2013-03-05 15:42:00,56.8,15.1,30.34,NE,45,4.0,15.0,19,0.00,,,0.00,meteohub,2013-03-05 21:42:00,
2013-03-05 15:47:00,57.2,14.0,30.34,NNW,338,17.0,17.0,18,0.00,,,0.00,meteohub,2013-03-05 21:47:00,
2013-03-05 15:52:00,57.2,14.0,30.34,WNW,293,6.0,17.0,18,0.00,,,0.00,meteohub,2013-03-05 21:52:00,
2013-03-05 15:57:00,57.4,14.2,30.34,NW,315,12.0,17.0,18,0.00,,,0.00,meteohub,2013-03-05 21:57:00,
2013-03-05 16:02:00,57.6,14.4,30.34,North,0,7.0,17.0,18,0.00,,,0.00,meteohub,2013-03-05 22:02:00,
2013-03-05 16:07:00,57.6,14.4,30.34,North,0,7.0,12.0,18,0.00,,,0.00,meteohub,2013-03-05 22:07:00,
2013-03-05 16:12:00,57.2,14.0,30.34,NW,315,11.0,12.0,18,0.00,,,0.00,meteohub,2013-03-05 22:12:00,
2013-03-05 16:17:00,57.2,14.0,30.34,North,0,8.0,10.0,18,0.00,,,0.00,meteohub,2013-03-05 22:17:00,
2013-03-05 16:22:00,57.0,15.1,30.34,North,0,8.0,12.0,19,0.00,,,0.00,meteohub,2013-03-05 22:22:00,
2013-03-05 16:27:00,57.2,14.0,30.34,WSW,248,7.0,13.0,18,0.00,,,0.00,meteohub,2013-03-05 22:27:00,
2013-03-05 16:32:00,57.6,14.4,30.34,NW,315,13.0,13.0,18,0.00,,,0.00,meteohub,2013-03-05 22:32:00,
2013-03-05 16:37:00,57.6,14.4,30.34,North,0,11.0,15.0,18,0.00,,,0.00,meteohub,2013-03-05 22:37:00,
2013-03-05 16:43:00,57.6,14.4,30.34,NW,315,8.0,15.0,18,0.00,,,0.00,meteohub,2013-03-05 22:43:00,
2013-03-05 16:48:00,57.9,14.7,30.34,NW,315,7.0,13.0,18,0.00,,,0.00,meteohub,2013-03-05 22:48:00,
2013-03-05 16:53:00,57.6,14.4,30.34,North,0,4.0,11.0,18,0.00,,,0.00,meteohub,2013-03-05 22:53:00,
2013-03-05 16:58:00,57.7,14.5,30.34,North,0,8.0,11.0,18,0.00,,,0.00,meteohub,2013-03-05 22:58:00,
2013-03-05 17:03:00,57.4,14.2,30.34,NW,315,8.0,11.0,18,0.00,,,0.00,meteohub,2013-03-05 23:03:00,
2013-03-05 17:08:00,57.2,14.0,30.34,NW,315,7.0,16.0,18,0.00,,,0.00,meteohub,2013-03-05 23:08:00,
2013-03-05 17:13:00,57.4,14.2,30.34,NW,315,11.0,16.0,18,0.00,,,0.00,meteohub,2013-03-05 23:13:00,
2013-03-05 17:18:00,57.2,14.0,30.34,NW,315,12.0,16.0,18,0.00,,,0.00,meteohub,2013-03-05 23:18:00,
2013-03-05 17:23:00,57.2,14.0,30.34,NW,315,12.0,14.0,18,0.00,,,0.00,meteohub,2013-03-05 23:23:00,
2013-03-05 17:28:00,57.2,14.0,30.34,NW,315,12.0,14.0,18,0.00,,,0.00,meteohub,2013-03-05 23:28:00,
2013-03-05 18:30:00,53.6,11.1,30.36,WSW,248,8.0,-999.0,18,-99.99,,,0.00,meteohub,2013-03-06 00:30:00,
2013-03-05 18:35:00,53.4,12.2,30.36,NW,315,3.0,8.0,19,0.00,,,0.00,meteohub,2013-03-06 00:35:00,
2013-03-05 18:40:00,53.2,12.0,30.36,North,0,7.0,8.0,19,0.00,,,0.00,meteohub,2013-03-06 00:40:00,
2013-03-05 18:45:00,52.9,11.7,30.36,North,0,6.0,8.0,19,0.00,,,0.00,meteohub,2013-03-06 00:45:00,
2013-03-05 18:50:00,52.7,11.7,30.36,NW,315,5.0,9.0,19,0.00,,,0.00,meteohub,2013-03-06 00:50:00,
2013-03-05 18:55:00,52.7,11.7,30.36,NW,315,9.0,9.0,19,0.00,,,0.00,meteohub,2013-03-06 00:55:00,
2013-03-05 19:00:00,52.3,11.3,30.37,NW,315,4.0,9.0,19,0.00,,,0.00,meteohub,2013-03-06 01:00:00,
2013-03-05 19:05:00,52.2,11.1,30.36,North,0,4.0,9.0,19,0.00,,,0.00,meteohub,2013-03-06 01:05:00,
2013-03-05 19:10:00,52.2,11.1,30.37,NW,315,4.0,9.0,19,0.00,,,0.00,meteohub,2013-03-06 01:10:00,
2013-03-05 19:15:00,52.0,10.9,30.37,NNW,338,5.0,8.0,19,0.00,,,0.00,meteohub,2013-03-06 01:15:00,
2013-03-05 19:20:00,52.0,10.9,30.38,NNW,338,5.0,8.0,19,0.00,,,0.00,meteohub,2013-03-06 01:20:00,
2013-03-05 19:25:00,51.6,12.9,30.38,NW,315,3.0,5.0,21,0.00,,,0.00,meteohub,2013-03-06 01:25:00,
2013-03-05 19:30:00,51.6,12.9,30.38,NE,45,6.0,6.0,21,0.00,,,0.00,meteohub,2013-03-06 01:30:00,
2013-03-05 19:35:00,51.6,12.9,30.38,NE,45,6.0,6.0,21,0.00,,,0.00,meteohub,2013-03-06 01:35:00,
2013-03-05 19:40:00,51.6,12.9,30.38,NE,45,6.0,6.0,21,0.00,,,0.00,meteohub,2013-03-06 01:40:00,
2013-03-05 19:45:00,51.1,12.6,30.38,NW,315,4.0,6.0,21,0.00,,,0.00,meteohub,2013-03-06 01:45:00,
2013-03-05 19:50:00,50.9,12.4,30.38,North,0,4.0,7.0,21,0.00,,,0.00,meteohub,2013-03-06 01:50:00,
2013-03-05 19:55:00,50.9,12.4,30.38,NW,315,5.0,7.0,21,0.00,,,0.00,meteohub,2013-03-06 01:55:00,
2013-03-05 20:00:00,50.9,12.4,30.38,NNW,338,6.0,7.0,21,0.00,,,0.00,meteohub,2013-03-06 02:00:00,
2013-03-05 20:05:00,50.9,12.4,30.38,NNW,338,6.0,7.0,21,0.00,,,0.00,meteohub,2013-03-06 02:05:00,
2013-03-05 20:11:00,50.5,12.0,30.38,NW,315,4.0,7.0,21,0.00,,,0.00,meteohub,2013-03-06 02:11:00,
2013-03-05 20:16:00,50.4,11.8,30.38,NW,315,4.0,7.0,21,0.00,,,0.00,meteohub,2013-03-06 02:16:00,
2013-03-05 20:21:00,50.2,12.7,30.38,NW,315,4.0,7.0,22,0.00,,,0.00,meteohub,2013-03-06 02:21:00,
2013-03-05 20:26:00,50.0,13.6,30.38,North,0,4.0,6.0,23,0.00,,,0.00,meteohub,2013-03-06 02:26:00,
2013-03-05 20:31:00,49.6,14.4,30.38,NW,315,3.0,4.0,24,0.00,,,0.00,meteohub,2013-03-06 02:31:00,
2013-03-05 20:36:00,49.6,14.4,30.38,NW,315,4.0,5.0,24,0.00,,,0.00,meteohub,2013-03-06 02:36:00,
2013-03-05 20:41:00,49.5,14.2,30.38,NW,315,5.0,7.0,24,0.00,,,0.00,meteohub,2013-03-06 02:41:00,
2013-03-05 20:46:00,49.3,14.0,30.38,NW,315,5.0,7.0,24,0.00,,,0.00,meteohub,2013-03-06 02:46:00,
2013-03-05 20:51:00,49.1,13.8,30.38,North,0,2.0,7.0,24,0.00,,,0.00,meteohub,2013-03-06 02:51:00,
2013-03-05 20:56:00,48.9,13.6,30.38,NW,315,3.0,5.0,24,0.00,,,0.00,meteohub,2013-03-06 02:56:00,
2013-03-05 21:01:00,48.7,14.5,30.38,West,270,4.0,5.0,25,0.00,,,0.00,meteohub,2013-03-06 03:01:00,
2013-03-05 21:06:00,48.6,14.4,30.39,North,0,4.0,5.0,25,0.00,,,0.00,meteohub,2013-03-06 03:06:00,
2013-03-05 21:11:00,48.6,14.4,30.39,North,0,2.0,5.0,25,0.00,,,0.00,meteohub,2013-03-06 03:11:00,
2013-03-05 21:16:00,48.4,15.1,30.39,NW,315,2.0,5.0,26,0.00,,,0.00,meteohub,2013-03-06 03:16:00,
2013-03-05 21:21:00,48.2,14.9,30.39,NW,315,4.0,5.0,26,0.00,,,0.00,meteohub,2013-03-06 03:21:00,
2013-03-05 21:26:00,48.2,14.9,30.39,NW,315,2.0,4.0,26,0.00,,,0.00,meteohub,2013-03-06 03:26:00,
2013-03-05 21:31:00,48.0,15.6,30.39,North,0,2.0,4.0,27,0.00,,,0.00,meteohub,2013-03-06 03:31:00,
2013-03-05 21:36:00,47.8,15.4,30.40,NW,315,4.0,4.0,27,0.00,,,0.00,meteohub,2013-03-06 03:36:00,
2013-03-05 21:41:00,48.0,16.5,30.40,NW,315,2.0,4.0,28,0.00,,,0.00,meteohub,2013-03-06 03:41:00,
2013-03-05 21:46:00,47.8,16.3,30.40,NW,315,2.0,4.0,28,0.00,,,0.00,meteohub,2013-03-06 03:46:00,
2013-03-05 21:51:00,47.7,16.2,30.40,North,0,5.0,5.0,28,0.00,,,0.00,meteohub,2013-03-06 03:51:00,
2013-03-05 21:56:00,47.7,16.2,30.40,West,270,2.0,5.0,28,0.00,,,0.00,meteohub,2013-03-06 03:56:00,
2013-03-05 22:01:00,47.3,15.8,30.40,West,270,2.0,5.0,28,0.00,,,0.00,meteohub,2013-03-06 04:01:00,
2013-03-05 22:06:00,47.3,15.8,30.40,West,270,2.0,5.0,28,0.00,,,0.00,meteohub,2013-03-06 04:06:00,
2013-03-05 22:11:00,47.1,15.6,30.40,North,0,4.0,4.0,28,0.00,,,0.00,meteohub,2013-03-06 04:11:00,
2013-03-05 22:16:00,46.9,15.4,30.40,NW,315,3.0,4.0,28,0.00,,,0.00,meteohub,2013-03-06 04:16:00,
2013-03-05 22:21:00,46.9,15.4,30.41,NW,315,2.0,4.0,28,0.00,,,0.00,meteohub,2013-03-06 04:21:00,
2013-03-05 22:26:00,46.8,15.4,30.41,NE,45,2.0,4.0,28,0.00,,,0.00,meteohub,2013-03-06 04:26:00,
2013-03-05 22:31:00,46.6,16.0,30.41,NE,45,2.0,4.0,29,0.00,,,0.00,meteohub,2013-03-06 04:31:00,
2013-03-05 22:36:00,46.4,16.7,30.41,NE,45,2.0,4.0,30,0.00,,,0.00,meteohub,2013-03-06 04:36:00,
2013-03-05 22:41:00,46.2,15.6,30.40,NE,45,3.0,4.0,29,0.00,,,0.00,meteohub,2013-03-06 04:41:00,
2013-03-05 22:46:00,45.9,15.4,30.40,NE,45,1.0,3.0,29,0.00,,,0.00,meteohub,2013-03-06 04:46:00,
2013-03-05 22:51:00,45.7,16.0,30.41,NE,45,2.0,3.0,30,0.00,,,0.00,meteohub,2013-03-06 04:51:00,
2013-03-05 22:56:00,45.5,16.5,30.40,North,0,2.0,3.0,31,0.00,,,0.00,meteohub,2013-03-06 04:56:00,
2013-03-05 23:00:00,45.5,17.4,30.41,West,270,2.0,3.0,32,0.00,,,0.00,meteohub,2013-03-06 05:00:00,
2013-03-05 23:05:00,45.1,17.8,30.41,NW,315,2.0,2.0,33,0.00,,,0.00,meteohub,2013-03-06 05:05:00,
2013-03-05 23:10:00,44.8,16.7,30.41,NW,315,2.0,3.0,32,0.00,,,0.00,meteohub,2013-03-06 05:10:00,
2013-03-05 23:15:00,44.4,17.8,30.41,NW,315,1.0,3.0,34,0.00,,,0.00,meteohub,2013-03-06 05:15:00,
2013-03-05 23:20:00,44.4,19.0,30.41,NW,315,2.0,2.0,36,0.00,,,0.00,meteohub,2013-03-06 05:20:00,
2013-03-05 23:25:00,44.6,20.5,30.41,NW,315,2.0,2.0,38,0.00,,,0.00,meteohub,2013-03-06 05:25:00,
2013-03-05 23:30:00,44.6,20.5,30.42,North,0,3.0,3.0,38,0.00,,,0.00,meteohub,2013-03-06 05:30:00,
2013-03-05 23:35:00,44.4,21.0,30.42,NW,315,2.0,3.0,39,0.00,,,0.00,meteohub,2013-03-06 05:35:00,
2013-03-05 23:40:00,43.9,19.2,30.41,NW,315,2.0,3.0,37,0.00,,,0.00,meteohub,2013-03-06 05:40:00,
2013-03-05 23:45:00,43.7,19.8,30.41,NW,315,2.0,3.0,38,0.00,,,0.00,meteohub,2013-03-06 05:45:00,
2013-03-05 23:50:00,43.5,20.1,30.42,North,0,4.0,4.0,39,0.00,,,0.00,meteohub,2013-03-06 05:50:00,
2013-03-05 23:55:00,43.3,20.1,30.42,NW,315,3.0,4.0,39,0.00,,,0.00,meteohub,2013-03-06 05:55:00,